Lionhead Wind

Located on Lionhead Ridge near West Yellowstone. Use the nearest SNOTEL station for snow depth data: Madison Plateau. The data on this page is also available to view at dataGarrison.com.

Elevation
8775ft
Jump to table bottom
Date Time Temperature
deg F
RH, % Wind Speed Wind Gust Wind Direction
11/26/21 16:08 25.1 81 17 32 W - 270
11/26/21 15:08 18.8 91 18 28 W - 277
11/26/21 14:08 21.5 74 17 31 W - 271
11/26/21 13:08 19.7 61 25 32 W - 254
11/26/21 12:08 18.9 59 26 33 W - 254
11/26/21 11:08 18.5 59 25 32 SW - 244
11/26/21 10:08 18.5 61 28 35 SW - 247
11/26/21 09:08 18.5 65 27 34 SW - 246
11/26/21 08:08 16.8 68 27 36 SW - 247
11/26/21 07:08 16.5 73 27 35 SW - 244
11/26/21 06:08 17.5 78 27 33 SW - 246
11/26/21 05:08 16.1 81 24 33 SW - 247
11/26/21 04:08 16.6 94 24 29 SW - 240
11/26/21 03:08 15.3 95 24 29 SW - 246
11/26/21 02:08 15.2 95 26 34 SW - 239
11/26/21 01:08 14.8 95 25 33 SW - 243
11/26/21 00:08 15.5 95 27 35 SW - 244
11/25/21 23:08 15.1 95 24 34 SW - 243
11/25/21 22:08 14.3 95 25 34 SW - 241
11/25/21 21:08 14.0 95 25 34 SW - 239
11/25/21 20:08 13.3 94 19 27 SW - 234
11/25/21 19:08 12.3 94 14 21 SW - 234
11/25/21 18:08 12.1 94 12 19 W - 256
11/25/21 17:08 12.0 94 15 21 W - 256
11/25/21 16:08 13.1 94 15 18 W - 257
11/25/21 15:08 14.4 94 16 22 W - 253
11/25/21 14:08 14.8 93 15 22 W - 258
11/25/21 13:08 14.3 93 20 30 W - 257
11/25/21 12:08 13.4 93 16 24 W - 251
11/25/21 11:08 12.6 93 14 21 W - 253
11/25/21 10:08 11.7 93 14 22 W - 248
11/25/21 09:08 11.0 93 8 11 W - 257
11/25/21 08:08 9.9 93 11 17 SW - 247
11/25/21 07:08 9.9 93 16 25 SW - 247
11/25/21 06:08 10.2 93 16 23 SW - 243
11/25/21 05:08 10.2 93 18 24 SW - 247
11/25/21 04:08 9.8 93 14 19 SW - 237
11/25/21 03:08 9.9 93 17 24 SW - 246
11/25/21 02:08 9.5 93 17 24 SW - 244
11/25/21 01:08 9.8 93 17 21 W - 248
11/25/21 00:08 10.7 93 17 24 W - 251
11/24/21 23:08 10.8 93 11 18 W - 257
11/24/21 22:08 11.1 93 12 18 W - 256
11/24/21 21:08 11.4 93 14 25 W - 268
11/24/21 20:08 11.5 93 10 26 W - 279
11/24/21 19:08 9.7 82 6 20 NW - 302
11/24/21 18:08 12.1 80 8 27 NW - 321
11/24/21 17:08 12.6 86 24 37 W - 275
11/24/21 16:08 13.5 80 18 32 W - 275
11/24/21 15:08 14.3 73 11 23 W - 284